Time;durP1;ratioP1;P1;durP2;ratioP2;P2;SDS_P1;SDS_P2;PMS_P1;PMS_P2;Temp;Humidity;BMP_temperature;BMP_pressure;BME280_temperature;BME280_humidity;BME280_pressure;Samples;Min_cycle;Max_cycle;Signal;HPM_P1;HPM_P2
2022/12/01 00:02:33;;;;;;;46.53;22.42;;;5.70;99.90;;;;;;7368608;32;20246;-61
2022/12/01 00:06:35;;;;;;;41.22;22.50;;;5.80;99.90;;;;;;7369826;32;20131;-61
2022/12/01 00:10:37;;;;;;;42.92;22.42;;;5.80;99.90;;;;;;7368865;32;20221;-62
2022/12/01 00:14:39;;;;;;;40.60;21.95;;;5.70;99.90;;;;;;7364399;32;20324;-62
2022/12/01 00:18:41;;;;;;;42.08;22.80;;;5.80;99.90;;;;;;7367288;32;20119;-64
2022/12/01 00:22:47;;;;;;;45.28;22.17;;;5.70;99.90;;;;;;7372961;32;20125;-61
2022/12/01 00:26:49;;;;;;;42.23;21.87;;;5.70;99.90;;;;;;7374655;32;20136;-61
2022/12/01 00:30:50;;;;;;;43.30;22.05;;;5.80;99.90;;;;;;7371317;32;20103;-63
2022/12/01 00:34:52;;;;;;;45.50;22.65;;;5.80;99.90;;;;;;7371158;32;20103;-61
2022/12/01 00:38:54;;;;;;;41.70;22.50;;;5.70;99.90;;;;;;7373316;32;20541;-61
2022/12/01 00:42:56;;;;;;;38.10;20.88;;;5.80;99.90;;;;;;7370606;32;20114;-62
2022/12/01 00:46:58;;;;;;;42.75;22.95;;;5.90;99.90;;;;;;7374026;32;20677;-59
2022/12/01 00:51:00;;;;;;;43.63;21.60;;;5.80;99.90;;;;;;7366595;32;20522;-59
2022/12/01 00:55:01;;;;;;;39.47;20.73;;;5.80;99.90;;;;;;7380909;32;20440;-59
2022/12/01 00:59:03;;;;;;;40.45;21.75;;;5.70;99.90;;;;;;7368883;32;20227;-61
2022/12/01 01:03:09;;;;;;;42.10;22.00;;;5.70;99.90;;;;;;7373881;32;20123;-61
2022/12/01 01:07:10;;;;;;;46.33;23.27;;;5.70;99.90;;;;;;7370219;32;20182;-62
2022/12/01 01:11:12;;;;;;;43.47;20.20;;;5.80;99.90;;;;;;7370191;32;20495;-62
2022/12/01 01:15:14;;;;;;;45.58;21.95;;;5.80;99.90;;;;;;7377619;32;20256;-62
2022/12/01 01:19:16;;;;;;;49.47;22.37;;;5.80;99.90;;;;;;7386842;32;20796;-61
2022/12/01 01:23:18;;;;;;;50.50;21.95;;;5.80;99.90;;;;;;7375340;32;20107;-61
2022/12/01 01:27:19;;;;;;;47.72;22.92;;;5.80;99.90;;;;;;7372236;32;20111;-63
2022/12/01 01:31:24;;;;;;;49.55;23.05;;;5.80;99.90;;;;;;7379235;32;20133;-62
2022/12/01 01:35:26;;;;;;;50.70;24.30;;;5.90;99.90;;;;;;7376222;32;20108;-61
2022/12/01 01:39:27;;;;;;;55.15;23.55;;;5.90;99.90;;;;;;7379134;32;20212;-61
2022/12/01 01:43:51;;;;;;;56.08;24.27;;;5.90;99.90;;;;;;7378310;32;20111;-59
2022/12/01 01:47:55;;;;;;;53.50;25.25;;;5.80;99.90;;;;;;7373143;32;20874;-60
2022/12/01 01:51:57;;;;;;;61.28;25.48;;;5.80;99.90;;;;;;7382254;32;20138;-60
2022/12/01 01:56:02;;;;;;;56.25;25.90;;;5.80;99.90;;;;;;7373292;32;20533;-60
2022/12/01 02:00:09;;;;;;;60.58;25.23;;;5.80;99.90;;;;;;7369676;32;20440;-61
2022/12/01 02:04:13;;;;;;;61.25;26.17;;;5.70;99.90;;;;;;7380306;32;20259;-61
2022/12/01 02:08:15;;;;;;;65.47;26.73;;;5.80;99.90;;;;;;7372813;32;20182;-60
2022/12/01 02:12:23;;;;;;;67.47;26.83;;;5.70;99.90;;;;;;7376417;32;20470;-60
2022/12/01 02:16:46;;;;;;;61.83;25.80;;;5.80;99.90;;;;;;7375675;32;20107;-60
2022/12/01 02:21:21;;;;;;;58.30;26.15;;;5.80;99.90;;;;;;7379426;32;20106;-60
2022/12/01 02:25:36;;;;;;;64.12;27.02;;;5.70;99.90;;;;;;7375335;32;20948;-60
2022/12/01 02:30:03;;;;;;;72.43;28.17;;;5.70;99.90;;;;;;7376864;32;20103;-60
2022/12/01 02:34:37;;;;;;;75.28;27.83;;;5.70;99.90;;;;;;7374583;32;20186;-61
2022/12/01 02:39:06;;;;;;;64.72;26.48;;;5.70;99.90;;;;;;7372412;32;20468;-60
2022/12/01 02:43:32;;;;;;;70.57;28.20;;;5.70;99.90;;;;;;7386721;32;20106;-60
2022/12/01 02:47:36;;;;;;;69.60;28.05;;;5.70;99.90;;;;;;7363793;32;20202;-60
2022/12/01 02:51:43;;;;;;;75.80;28.90;;;5.60;99.90;;;;;;7366728;32;20202;-60
2022/12/01 02:55:51;;;;;;;74.18;27.85;;;5.60;99.90;;;;;;7372014;32;20107;-60
2022/12/01 02:59:54;;;;;;;71.32;27.65;;;5.60;99.90;;;;;;7372808;32;20095;-60
2022/12/01 03:04:20;;;;;;;74.10;28.67;;;5.70;99.90;;;;;;7380967;32;20137;-60
2022/12/01 03:08:48;;;;;;;74.12;28.95;;;5.70;99.90;;;;;;7371939;32;20122;-60
2022/12/01 03:13:05;;;;;;;74.20;28.60;;;5.70;99.90;;;;;;7371998;32;20511;-61
2022/12/01 03:17:10;;;;;;;67.05;27.40;;;5.80;99.90;;;;;;7369694;32;20134;-60
2022/12/01 03:21:27;;;;;;;66.18;25.45;;;5.70;99.90;;;;;;7374156;32;20103;-60
2022/12/01 03:25:30;;;;;;;69.05;26.85;;;5.70;99.90;;;;;;7376460;32;20437;-60
2022/12/01 03:29:42;;;;;;;71.62;28.15;;;5.70;99.90;;;;;;7374060;32;20124;-60
2022/12/01 03:33:51;;;;;;;76.47;27.52;;;5.70;99.90;;;;;;7374922;32;20600;-60
2022/12/01 03:38:03;;;;;;;83.22;29.63;;;5.60;99.90;;;;;;7372652;32;20132;-60
2022/12/01 03:42:17;;;;;;;71.20;28.45;;;5.60;99.90;;;;;;7378847;32;20512;-60
2022/12/01 03:46:23;;;;;;;74.07;29.45;;;5.60;99.90;;;;;;7371500;32;20133;-60
2022/12/01 03:50:36;;;;;;;69.32;28.50;;;5.60;99.90;;;;;;7381622;32;20157;-61
2022/12/01 03:55:06;;;;;;;77.12;31.20;;;5.70;99.90;;;;;;7373791;32;20471;-60
2022/12/01 03:59:09;;;;;;;67.50;29.35;;;5.60;99.90;;;;;;7374416;32;20562;-60
2022/12/01 04:03:17;;;;;;;72.60;29.45;;;5.50;99.90;;;;;;7372360;32;20487;-60
2022/12/01 04:07:20;;;;;;;67.30;27.87;;;5.60;99.90;;;;;;7373185;32;20146;-60
2022/12/01 04:15:44;;;;;;;63.35;26.25;;;5.60;99.90;;;;;;7355194;32;20194;-61
2022/12/01 04:19:46;;;;;;;57.50;24.67;;;5.60;99.90;;;;;;7369271;32;20134;-60
2022/12/01 04:24:00;;;;;;;54.33;24.87;;;5.70;99.90;;;;;;7369872;32;20111;-60
2022/12/01 04:28:01;;;;;;;51.88;23.50;;;5.60;99.90;;;;;;7378868;32;20186;-60
2022/12/01 04:32:03;;;;;;;53.38;24.00;;;5.60;99.90;;;;;;7370121;32;20102;-62
2022/12/01 04:36:05;;;;;;;53.35;25.40;;;5.60;99.90;;;;;;7364839;32;20103;-60
2022/12/01 04:40:08;;;;;;;51.03;24.45;;;5.60;99.90;;;;;;7381677;32;20264;-60
2022/12/01 04:44:10;;;;;;;50.72;23.87;;;5.50;99.90;;;;;;7374289;32;20508;-61
2022/12/01 04:48:11;;;;;;;55.38;23.70;;;5.50;99.90;;;;;;7379735;32;20125;-60
2022/12/01 04:52:13;;;;;;;47.35;22.70;;;5.50;99.90;;;;;;7370379;32;20122;-61
2022/12/01 04:56:15;;;;;;;47.42;21.75;;;5.60;99.90;;;;;;7377142;32;20107;-60
2022/12/01 05:00:17;;;;;;;44.08;22.25;;;5.60;99.90;;;;;;7377647;32;20107;-61
2022/12/01 05:04:18;;;;;;;46.25;21.00;;;5.70;99.90;;;;;;7368905;32;20740;-60
2022/12/01 05:08:20;;;;;;;44.35;21.87;;;5.60;99.90;;;;;;7380236;32;20524;-61
2022/12/01 05:12:22;;;;;;;43.53;22.33;;;5.70;99.90;;;;;;7374366;32;20125;-61
2022/12/01 05:16:33;;;;;;;48.95;22.87;;;5.60;99.90;;;;;;7377506;32;20232;-60
2022/12/01 05:24:55;;;;;;;44.03;21.67;;;5.60;99.90;;;;;;7375407;32;20111;-60
2022/12/01 05:28:57;;;;;;;41.28;21.20;;;5.70;99.90;;;;;;7375226;32;20110;-60
2022/12/01 05:32:58;;;;;;;51.40;23.00;;;5.70;99.90;;;;;;7379288;32;20515;-60
2022/12/01 05:37:00;;;;;;;51.35;23.85;;;5.70;99.90;;;;;;7383984;32;20110;-62
2022/12/01 05:41:02;;;;;;;50.35;22.90;;;5.80;99.90;;;;;;7370468;32;20131;-63
2022/12/01 05:45:04;;;;;;;51.08;24.27;;;5.80;99.90;;;;;;7376289;32;20655;-61
2022/12/01 05:49:06;;;;;;;51.42;23.92;;;5.70;99.90;;;;;;7368144;32;20136;-61
2022/12/01 05:53:10;;;;;;;53.72;24.73;;;5.70;99.90;;;;;;7381848;32;20107;-61
2022/12/01 05:57:12;;;;;;;52.15;25.33;;;5.70;99.90;;;;;;7375306;32;20126;-61
2022/12/01 06:01:14;;;;;;;59.42;25.73;;;5.70;99.90;;;;;;7383235;32;20497;-61
2022/12/01 06:05:16;;;;;;;58.50;25.77;;;5.60;99.90;;;;;;7374382;32;20199;-61
2022/12/01 06:09:18;;;;;;;50.92;24.02;;;5.70;99.90;;;;;;7378623;32;20558;-61
2022/12/01 06:13:19;;;;;;;54.97;24.90;;;5.60;99.90;;;;;;7374927;32;20115;-61
2022/12/01 06:17:21;;;;;;;56.40;24.85;;;5.70;99.90;;;;;;7377136;32;20102;-62
2022/12/01 06:21:23;;;;;;;44.17;22.37;;;5.70;99.90;;;;;;7375049;32;20125;-62
2022/12/01 06:25:24;;;;;;;49.67;23.38;;;5.80;99.90;;;;;;7373812;32;20268;-59
2022/12/01 06:29:26;;;;;;;49.22;23.55;;;5.70;99.90;;;;;;7367171;32;20107;-60
2022/12/01 06:33:28;;;;;;;45.12;22.45;;;5.70;99.90;;;;;;7371948;32;20107;-59
2022/12/01 06:37:29;;;;;;;46.10;24.15;;;5.70;99.90;;;;;;7372262;32;20106;-60
2022/12/01 06:41:31;;;;;;;48.95;23.65;;;5.70;99.90;;;;;;7373454;32;20103;-60
2022/12/01 06:45:33;;;;;;;48.67;24.02;;;5.60;99.90;;;;;;7378247;32;20264;-61
2022/12/01 06:49:35;;;;;;;52.38;24.73;;;5.50;99.90;;;;;;7372218;32;20576;-60
2022/12/01 06:53:36;;;;;;;48.20;24.12;;;5.50;99.90;;;;;;7380741;32;20197;-60
2022/12/01 06:57:38;;;;;;;45.35;23.98;;;5.50;99.90;;;;;;7372923;32;20523;-60
2022/12/01 07:01:40;;;;;;;51.30;25.15;;;5.50;99.90;;;;;;7369140;32;20129;-61
2022/12/01 07:05:41;;;;;;;49.60;25.88;;;5.50;99.90;;;;;;7382483;32;20927;-60
2022/12/01 07:09:43;;;;;;;48.20;23.95;;;5.50;99.90;;;;;;7373901;32;20125;-60
2022/12/01 07:13:45;;;;;;;52.30;24.23;;;5.50;99.90;;;;;;7374654;32;20675;-60
2022/12/01 07:17:47;;;;;;;51.55;24.27;;;5.50;99.90;;;;;;7372979;32;20692;-62
2022/12/01 07:21:49;;;;;;;52.65;23.98;;;5.50;99.90;;;;;;7375379;32;20133;-62
2022/12/01 07:26:09;;;;;;;47.80;24.48;;;5.60;99.90;;;;;;7371126;32;20113;-62
2022/12/01 07:30:11;;;;;;;47.28;23.02;;;5.60;99.90;;;;;;7375344;32;20107;-62
2022/12/01 07:34:13;;;;;;;49.58;24.30;;;5.60;99.90;;;;;;7372682;32;20111;-63
2022/12/01 07:38:15;;;;;;;50.25;23.83;;;5.50;99.90;;;;;;7374166;32;20555;-62
2022/12/01 07:42:22;;;;;;;51.03;25.15;;;5.60;99.90;;;;;;7366438;32;20122;-62
2022/12/01 07:46:25;;;;;;;54.28;26.95;;;5.60;99.90;;;;;;7371886;32;20693;-63
2022/12/01 07:50:27;;;;;;;56.58;25.92;;;5.50;99.90;;;;;;7373810;32;20138;-63
2022/12/01 07:54:29;;;;;;;54.35;26.90;;;5.50;99.90;;;;;;7374993;32;20107;-62
2022/12/01 07:58:31;;;;;;;57.78;25.05;;;5.50;99.90;;;;;;7370380;32;20692;-61
2022/12/01 08:02:33;;;;;;;53.97;25.73;;;5.70;99.90;;;;;;7374102;32;20204;-61
2022/12/01 08:06:35;;;;;;;61.65;25.98;;;5.60;99.90;;;;;;7376884;32;20263;-60
2022/12/01 08:10:36;;;;;;;56.85;25.90;;;5.50;99.90;;;;;;7379181;32;20217;-60
2022/12/01 08:14:38;;;;;;;57.35;25.73;;;5.60;99.90;;;;;;7369037;32;20587;-60
2022/12/01 08:18:41;;;;;;;57.38;24.58;;;5.60;99.90;;;;;;7370213;32;20515;-60
2022/12/01 08:22:43;;;;;;;52.75;24.55;;;5.70;99.90;;;;;;7376398;32;20103;-60
2022/12/01 08:26:44;;;;;;;58.15;24.73;;;5.70;99.90;;;;;;7375686;32;20257;-60
2022/12/01 08:30:46;;;;;;;55.83;25.52;;;5.60;99.90;;;;;;7368673;32;20127;-60
2022/12/01 08:34:48;;;;;;;52.67;23.62;;;5.60;99.90;;;;;;7371781;32;20119;-61
2022/12/01 08:38:55;;;;;;;57.78;26.20;;;5.60;99.90;;;;;;7372174;32;20107;-61
2022/12/01 08:42:56;;;;;;;55.05;25.92;;;5.60;99.90;;;;;;7365599;32;20111;-60
2022/12/01 08:46:58;;;;;;;71.20;27.25;;;5.70;99.90;;;;;;7374302;32;20118;-60
2022/12/01 08:51:06;;;;;;;64.32;27.40;;;5.80;99.90;;;;;;7363456;32;20134;-61
2022/12/01 08:55:08;;;;;;;63.38;27.87;;;5.80;99.90;;;;;;7372911;32;20226;-61
2022/12/01 08:59:10;;;;;;;61.72;27.75;;;5.80;99.90;;;;;;7367084;32;20111;-60
2022/12/01 09:03:12;;;;;;;60.25;27.02;;;5.80;99.90;;;;;;7369293;32;20123;-60
2022/12/01 09:07:15;;;;;;;59.20;27.02;;;5.80;99.90;;;;;;7361449;32;20176;-61
2022/12/01 09:11:22;;;;;;;67.53;28.45;;;5.80;99.90;;;;;;7367445;32;20099;-61
2022/12/01 09:15:23;;;;;;;59.60;26.17;;;5.80;99.90;;;;;;7364345;32;20245;-62
2022/12/01 09:19:27;;;;;;;67.28;27.42;;;5.80;99.90;;;;;;7362695;32;20206;-62
2022/12/01 09:23:29;;;;;;;62.03;28.15;;;5.70;99.90;;;;;;7371224;32;20106;-62
2022/12/01 09:27:30;;;;;;;58.30;27.33;;;5.70;99.90;;;;;;7370233;32;20122;-60
2022/12/01 09:31:32;;;;;;;58.30;25.92;;;5.80;99.90;;;;;;7369452;32;20511;-61
2022/12/01 09:35:34;;;;;;;57.78;25.98;;;5.80;99.90;;;;;;7381175;32;20125;-61
2022/12/01 09:39:36;;;;;;;54.72;27.40;;;5.80;99.90;;;;;;7378203;32;20106;-61
2022/12/01 09:43:49;;;;;;;57.88;27.58;;;5.80;99.90;;;;;;7370337;32;20125;-61
2022/12/01 09:47:55;;;;;;;50.88;24.08;;;5.60;99.90;;;;;;7377113;32;20131;-61
2022/12/01 09:51:59;;;;;;;58.53;25.77;;;5.70;99.90;;;;;;7370810;32;20513;-61
2022/12/01 09:56:00;;;;;;;51.22;23.42;;;5.70;99.90;;;;;;7374406;32;20567;-62
2022/12/01 10:00:16;;;;;;;47.00;22.50;;;5.70;99.90;;;;;;7374464;32;20285;-61
2022/12/01 10:04:29;;;;;;;53.00;23.43;;;5.70;99.90;;;;;;7377642;32;20458;-61
2022/12/01 10:08:35;;;;;;;56.92;26.00;;;5.70;99.90;;;;;;7376947;32;20257;-61
2022/12/01 10:12:40;;;;;;;51.85;24.98;;;5.80;99.90;;;;;;7377133;32;20588;-61
2022/12/01 10:16:58;;;;;;;54.35;24.02;;;5.80;99.90;;;;;;7382490;32;20107;-61
2022/12/01 10:21:13;;;;;;;49.67;23.23;;;5.70;99.90;;;;;;7378945;32;20129;-60
2022/12/01 10:25:25;;;;;;;48.80;23.20;;;5.60;99.90;;;;;;7385227;32;20813;-61
2022/12/01 10:29:42;;;;;;;50.42;23.65;;;5.60;99.90;;;;;;7374099;32;20123;-61
2022/12/01 10:34:23;;;;;;;50.95;24.12;;;5.60;99.90;;;;;;7374001;32;20128;-61
2022/12/01 10:38:32;;;;;;;45.28;21.55;;;5.60;99.90;;;;;;7366395;32;20130;-61
2022/12/01 10:42:39;;;;;;;48.90;22.13;;;5.60;99.90;;;;;;7370269;32;20687;-61
2022/12/01 10:46:55;;;;;;;48.55;21.30;;;5.70;99.90;;;;;;7372938;32;20588;-61
2022/12/01 10:51:14;;;;;;;42.90;20.50;;;5.70;99.90;;;;;;7373747;32;20617;-61
2022/12/01 10:55:21;;;;;;;45.12;22.27;;;5.50;99.90;;;;;;7376999;32;20557;-60
2022/12/01 10:59:31;;;;;;;43.45;21.70;;;5.40;99.90;;;;;;7371133;32;20133;-60
2022/12/01 11:03:35;;;;;;;50.97;22.62;;;5.50;99.90;;;;;;7366185;32;20095;-61
2022/12/01 11:07:48;;;;;;;45.22;22.83;;;5.60;99.90;;;;;;7378064;32;20258;-62
2022/12/01 11:11:55;;;;;;;47.17;22.73;;;5.60;99.90;;;;;;7363704;32;20108;-60
2022/12/01 11:16:03;;;;;;;47.22;22.83;;;5.60;99.90;;;;;;7363722;32;20625;-61
2022/12/01 11:20:31;;;;;;;45.80;21.90;;;5.60;99.90;;;;;;7373235;32;20344;-60
2022/12/01 11:24:54;;;;;;;38.53;22.52;;;5.50;99.90;;;;;;7364809;32;22103;-59
2022/12/01 11:28:59;;;;;;;47.38;23.98;;;5.50;99.90;;;;;;7367323;32;20630;-59
2022/12/01 11:33:03;;;;;;;41.75;22.85;;;5.60;99.90;;;;;;7367169;32;20107;-60
2022/12/01 11:37:16;;;;;;;43.35;23.00;;;5.60;99.90;;;;;;7371199;32;20134;-62
2022/12/01 11:41:31;;;;;;;44.92;22.95;;;5.70;99.90;;;;;;7377407;32;20103;-60
2022/12/01 11:45:38;;;;;;;47.95;24.15;;;5.70;99.90;;;;;;7372364;32;20138;-60
2022/12/01 11:49:41;;;;;;;;;;;5.80;99.90;;;;;;7373768;32;20138;-60
2022/12/01 11:53:48;;;;;;;41.95;23.08;;;5.80;99.90;;;;;;7373623;32;20057;-60
2022/12/01 11:57:52;;;;;;;42.08;23.48;;;5.80;99.90;;;;;;7373442;32;20577;-60
2022/12/01 12:02:37;;;;;;;43.08;22.37;;;5.90;99.90;;;;;;7370614;32;20515;-60
2022/12/01 12:07:01;;;;;;;45.50;24.08;;;5.90;99.90;;;;;;7366476;32;20250;-59
2022/12/01 12:11:29;;;;;;;46.42;25.48;;;5.90;99.90;;;;;;7368638;32;20532;-59
2022/12/01 12:16:10;;;;;;;46.25;25.08;;;5.90;99.90;;;;;;7371204;32;20146;-60
2022/12/01 12:20:33;;;;;;;44.05;25.15;;;5.90;99.90;;;;;;7361009;32;20182;-59
2022/12/01 12:24:40;;;;;;;42.95;24.85;;;5.90;99.90;;;;;;7367714;32;20214;-60
2022/12/01 12:29:00;;;;;;;42.33;24.73;;;5.90;99.90;;;;;;7375597;32;20125;-62
2022/12/01 12:33:22;;;;;;;48.20;25.58;;;6.00;99.90;;;;;;7368007;32;20515;-58
2022/12/01 12:37:30;;;;;;;48.97;27.00;;;6.20;99.90;;;;;;7376113;32;20771;-59
2022/12/01 12:41:49;;;;;;;53.42;30.37;;;6.20;99.90;;;;;;7374196;32;20209;-59
2022/12/01 12:45:56;;;;;;;57.95;30.92;;;6.10;99.90;;;;;;7371163;32;20125;-60
2022/12/01 12:50:16;;;;;;;55.58;32.22;;;6.10;99.90;;;;;;7372120;32;20213;-59
2022/12/01 12:54:26;;;;;;;57.03;31.92;;;6.20;99.90;;;;;;7367539;32;20229;-59
2022/12/01 12:58:38;;;;;;;61.25;32.92;;;6.20;99.90;;;;;;7369302;32;20175;-59
2022/12/01 13:02:41;;;;;;;57.45;31.37;;;6.20;99.90;;;;;;7359417;32;20222;-59
2022/12/01 13:06:54;;;;;;;61.50;32.33;;;6.30;99.90;;;;;;7367366;32;20195;-59
2022/12/01 13:11:08;;;;;;;56.60;32.67;;;6.30;99.90;;;;;;7371781;32;20198;-59
2022/12/01 13:15:18;;;;;;;58.30;31.73;;;6.30;99.90;;;;;;7369142;32;20107;-59
2022/12/01 13:19:34;;;;;;;64.97;35.67;;;6.40;99.90;;;;;;7374156;32;20106;-59
2022/12/01 13:23:37;;;;;;;57.80;32.85;;;6.50;99.90;;;;;;7370520;32;20253;-59
2022/12/01 13:27:41;;;;;;;62.30;34.50;;;6.50;99.90;;;;;;7376850;32;20127;-59
2022/12/01 13:31:46;;;;;;;60.95;33.35;;;6.40;99.90;;;;;;7378730;32;20118;-59
2022/12/01 13:35:53;;;;;;;66.43;35.45;;;6.50;99.90;;;;;;7380389;32;20106;-59
2022/12/01 13:40:26;;;;;;;63.22;33.67;;;6.40;99.90;;;;;;7379661;32;20178;-59
2022/12/01 13:44:39;;;;;;;63.17;34.22;;;6.40;99.90;;;;;;7375380;32;20107;-61
2022/12/01 13:48:41;;;;;;;64.18;34.88;;;6.30;99.90;;;;;;7375410;32;20129;-61
2022/12/01 13:52:49;;;;;;;67.90;34.58;;;6.30;99.90;;;;;;7374860;32;20488;-62
2022/12/01 13:57:03;;;;;;;64.95;34.83;;;6.30;99.90;;;;;;7367789;32;20175;-60
2022/12/01 14:01:41;;;;;;;61.67;34.67;;;6.30;99.90;;;;;;7372296;32;20130;-61
2022/12/01 14:05:52;;;;;;;66.32;36.15;;;6.40;99.90;;;;;;7363851;32;20137;-60
2022/12/01 14:10:05;;;;;;;61.22;35.25;;;6.30;99.90;;;;;;7376195;32;20130;-60
2022/12/01 14:14:17;;;;;;;68.43;35.25;;;6.20;99.90;;;;;;7378332;32;20249;-60
2022/12/01 14:18:34;;;;;;;65.32;34.90;;;6.20;99.90;;;;;;7372615;32;20187;-60
2022/12/01 14:22:42;;;;;;;66.53;36.95;;;6.20;99.90;;;;;;7373762;32;20104;-61
2022/12/01 14:26:47;;;;;;;72.50;37.70;;;6.30;99.90;;;;;;7366792;32;20480;-60
2022/12/01 14:30:50;;;;;;;65.40;36.63;;;6.20;99.90;;;;;;7371397;32;20103;-60
2022/12/01 14:34:54;;;;;;;67.45;38.58;;;6.20;99.90;;;;;;7376160;32;20121;-57
2022/12/01 14:39:02;;;;;;;74.80;40.35;;;6.20;99.90;;;;;;7374905;32;20186;-60
2022/12/01 14:47:39;;;;;;;67.90;35.60;;;6.00;99.90;;;;;;7373262;32;20201;-60
2022/12/01 14:51:44;;;;;;;71.60;40.08;;;6.00;99.90;;;;;;7378600;32;20130;-60
2022/12/01 14:55:58;;;;;;;72.18;39.13;;;6.00;99.90;;;;;;7369881;32;20212;-60
2022/12/01 15:00:11;;;;;;;74.32;39.00;;;5.90;99.90;;;;;;7376819;32;20463;-60
2022/12/01 15:04:13;;;;;;;72.45;39.58;;;5.90;99.90;;;;;;7374003;32;20111;-60
2022/12/01 15:08:20;;;;;;;80.18;41.47;;;5.90;99.90;;;;;;7378611;32;20487;-60
2022/12/01 15:12:42;;;;;;;71.77;36.40;;;5.90;99.90;;;;;;7377572;32;20125;-60
2022/12/01 15:16:44;;;;;;;72.75;39.15;;;5.90;99.90;;;;;;7366680;32;20117;-60
2022/12/01 15:20:49;;;;;;;77.35;40.53;;;5.80;99.90;;;;;;7366534;32;20541;-59
2022/12/01 15:24:51;;;;;;;75.22;39.95;;;5.90;99.90;;;;;;7365081;32;22068;-58
2022/12/01 15:29:24;;;;;;;77.32;40.08;;;5.70;99.90;;;;;;7372404;32;20146;-58
2022/12/01 15:33:31;;;;;;;77.25;39.53;;;5.80;99.90;;;;;;7357054;32;20095;-60
2022/12/01 15:37:42;;;;;;;83.05;41.53;;;5.70;99.90;;;;;;7369724;32;20160;-60
2022/12/01 15:41:46;;;;;;;73.67;40.80;;;5.70;99.90;;;;;;7367574;32;20103;-60
2022/12/01 15:45:57;;;;;;;77.35;40.88;;;5.70;99.90;;;;;;7374796;32;20221;-60
2022/12/01 15:49:58;;;;;;;71.30;40.63;;;5.60;99.90;;;;;;7367845;32;20290;-60
2022/12/01 15:54:01;;;;;;;78.78;40.80;;;5.60;99.90;;;;;;7374011;32;20154;-60
2022/12/01 15:58:08;;;;;;;77.25;40.22;;;5.50;99.90;;;;;;7373583;32;20119;-60
2022/12/01 16:02:19;;;;;;;76.05;40.22;;;5.60;99.90;;;;;;7367214;32;20127;-61
2022/12/01 16:06:29;;;;;;;81.93;40.92;;;5.50;99.90;;;;;;7371527;32;20311;-61
2022/12/01 16:10:34;;;;;;;78.07;41.37;;;5.60;99.90;;;;;;7370048;32;20127;-61
2022/12/01 16:14:47;;;;;;;77.22;40.92;;;5.60;99.90;;;;;;7374450;32;20240;-61
2022/12/01 16:19:02;;;;;;;72.78;40.17;;;5.50;99.90;;;;;;7366633;32;20214;-61
2022/12/01 16:23:19;;;;;;;70.07;38.08;;;5.40;99.90;;;;;;7365726;32;20119;-60
2022/12/01 16:27:26;;;;;;;75.68;40.95;;;5.50;99.90;;;;;;7369264;32;20107;-61
2022/12/01 16:31:28;;;;;;;75.15;40.72;;;5.50;99.90;;;;;;7365207;32;20248;-59
2022/12/01 16:35:32;;;;;;;71.53;40.40;;;5.40;99.90;;;;;;7376998;32;20143;-59
2022/12/01 16:39:34;;;;;;;71.55;38.25;;;5.40;99.90;;;;;;7372534;32;20141;-58
2022/12/01 16:43:36;;;;;;;70.22;38.72;;;5.40;99.90;;;;;;7372508;32;20503;-58
2022/12/01 16:47:37;;;;;;;70.37;36.78;;;5.30;99.90;;;;;;7370320;32;20125;-59
2022/12/01 16:51:39;;;;;;;67.25;38.33;;;5.40;99.90;;;;;;7378838;32;20173;-59
2022/12/01 16:55:59;;;;;;;68.05;37.70;;;5.30;99.90;;;;;;7373218;32;20277;-59
2022/12/01 17:00:01;;;;;;;68.57;37.97;;;5.20;99.90;;;;;;7378853;32;20112;-59
2022/12/01 17:04:03;;;;;;;63.78;36.40;;;5.20;99.90;;;;;;7382524;32;20222;-59
2022/12/01 17:08:08;;;;;;;63.40;35.17;;;5.20;99.90;;;;;;7375382;32;20194;-59
2022/12/01 17:12:10;;;;;;;60.80;35.20;;;5.20;99.90;;;;;;7382489;32;20178;-58
2022/12/01 17:16:12;;;;;;;62.62;34.75;;;5.30;99.90;;;;;;7380655;32;20258;-59
2022/12/01 17:20:19;;;;;;;65.18;34.78;;;5.30;99.90;;;;;;7374973;32;20428;-59
2022/12/01 17:24:21;;;;;;;65.35;36.28;;;5.20;99.90;;;;;;7375969;32;21121;-60
2022/12/01 17:28:22;;;;;;;64.57;36.63;;;5.20;99.90;;;;;;7373722;32;20137;-58
2022/12/01 17:32:26;;;;;;;65.70;36.80;;;5.30;99.90;;;;;;7372635;32;20221;-58
2022/12/01 17:36:27;;;;;;;58.70;35.13;;;5.30;99.90;;;;;;7378505;32;20115;-59
2022/12/01 17:40:29;;;;;;;60.25;34.00;;;5.30;99.90;;;;;;7378145;32;20115;-59
2022/12/01 17:44:31;;;;;;;64.47;36.28;;;5.30;99.90;;;;;;7380861;32;20111;-59
2022/12/01 17:48:41;;;;;;;65.28;35.90;;;5.30;99.90;;;;;;7376527;32;20131;-59
2022/12/01 17:52:42;;;;;;;66.50;35.40;;;5.30;99.90;;;;;;7380067;32;20196;-58
2022/12/01 17:56:44;;;;;;;69.82;36.88;;;5.30;99.90;;;;;;7371639;32;20142;-58
2022/12/01 18:00:48;;;;;;;65.78;35.88;;;5.20;99.90;;;;;;7370142;32;20208;-59
2022/12/01 18:04:50;;;;;;;69.55;37.20;;;5.20;99.90;;;;;;7382383;32;20834;-59
2022/12/01 18:08:53;;;;;;;67.90;36.00;;;5.20;99.90;;;;;;7370434;32;20091;-59
2022/12/01 18:12:54;;;;;;;74.20;37.97;;;5.10;99.90;;;;;;7380166;32;20124;-59
2022/12/01 18:16:56;;;;;;;73.85;40.38;;;5.20;99.90;;;;;;7370622;32;20213;-59
2022/12/01 18:20:58;;;;;;;78.53;41.90;;;5.10;99.90;;;;;;7377104;32;20108;-59
2022/12/01 18:24:59;;;;;;;69.28;37.08;;;5.20;99.90;;;;;;7379192;32;20125;-59
2022/12/01 18:29:05;;;;;;;67.85;35.92;;;5.10;99.90;;;;;;7371503;32;20103;-59
2022/12/01 18:33:11;;;;;;;71.35;36.20;;;5.10;99.90;;;;;;7376841;32;20616;-59
2022/12/01 18:37:12;;;;;;;66.05;35.00;;;5.10;99.90;;;;;;7368449;32;20134;-59
2022/12/01 18:41:15;;;;;;;60.55;33.92;;;5.10;99.90;;;;;;7375011;32;20733;-59
2022/12/01 18:45:17;;;;;;;65.82;33.40;;;5.00;99.90;;;;;;7372152;32;20538;-60
2022/12/01 18:49:22;;;;;;;63.38;32.53;;;5.00;99.90;;;;;;7373498;32;20576;-58
2022/12/01 18:53:23;;;;;;;63.70;33.17;;;5.00;99.90;;;;;;7376329;32;20587;-58
2022/12/01 18:57:25;;;;;;;66.03;36.40;;;5.00;99.90;;;;;;7367914;32;20115;-59
2022/12/01 19:01:31;;;;;;;65.43;34.80;;;5.00;99.90;;;;;;7368070;32;20226;-58
2022/12/01 19:05:37;;;;;;;62.00;32.25;;;4.90;99.90;;;;;;7371533;32;20118;-59
2022/12/01 19:09:39;;;;;;;59.83;31.50;;;4.90;99.90;;;;;;7383102;32;20122;-59
2022/12/01 19:13:41;;;;;;;63.25;32.70;;;4.90;99.90;;;;;;7369425;32;20503;-59
2022/12/01 19:17:42;;;;;;;67.62;34.15;;;4.90;99.90;;;;;;7366209;32;20107;-59
2022/12/01 19:21:44;;;;;;;69.75;35.28;;;4.80;99.90;;;;;;7375271;32;20207;-59
2022/12/01 19:25:46;;;;;;;73.00;36.25;;;4.80;99.90;;;;;;7379706;32;20379;-59
2022/12/01 19:29:49;;;;;;;72.95;37.38;;;4.70;99.90;;;;;;7368519;32;20528;-59
2022/12/01 19:33:52;;;;;;;76.53;36.75;;;4.70;99.90;;;;;;7376136;32;20134;-60
2022/12/01 19:37:53;;;;;;;67.85;35.20;;;4.70;99.90;;;;;;7376997;32;20237;-59
2022/12/01 19:41:56;;;;;;;68.12;33.47;;;4.60;99.90;;;;;;7373905;32;20111;-59
2022/12/01 19:46:05;;;;;;;68.97;33.50;;;4.50;99.90;;;;;;7372362;32;20119;-60
2022/12/01 19:50:08;;;;;;;66.75;33.55;;;4.30;99.90;;;;;;7369825;32;20123;-60
2022/12/01 19:54:13;;;;;;;67.35;31.90;;;4.30;99.90;;;;;;7377076;32;20140;-60
2022/12/01 19:58:16;;;;;;;68.87;33.17;;;4.30;99.90;;;;;;7374412;32;20221;-59
2022/12/01 20:02:19;;;;;;;71.87;33.42;;;4.30;99.90;;;;;;7377795;32;20110;-59
2022/12/01 20:06:28;;;;;;;67.15;32.28;;;4.20;99.90;;;;;;7370763;32;20875;-60
2022/12/01 20:10:30;;;;;;;62.90;30.62;;;4.30;99.90;;;;;;7371491;32;21017;-60
2022/12/01 20:14:31;;;;;;;57.10;26.55;;;4.30;99.90;;;;;;7373307;32;20218;-60
2022/12/01 20:18:34;;;;;;;55.72;27.65;;;4.30;99.90;;;;;;7373371;32;20103;-60
2022/12/01 20:22:36;;;;;;;54.13;26.30;;;4.20;99.90;;;;;;7372391;32;20896;-60
2022/12/01 20:26:47;;;;;;;50.67;24.95;;;4.20;99.90;;;;;;7363735;32;20127;-59
2022/12/01 20:30:49;;;;;;;49.10;24.73;;;4.20;99.90;;;;;;7369485;32;20249;-59
2022/12/01 20:34:50;;;;;;;45.58;22.92;;;4.20;99.90;;;;;;7371321;32;20133;-58
2022/12/01 20:38:53;;;;;;;42.90;21.27;;;4.20;99.90;;;;;;7364858;32;20624;-59
2022/12/01 20:42:55;;;;;;;45.08;21.40;;;4.20;99.90;;;;;;7367023;32;20178;-60
2022/12/01 20:46:56;;;;;;;37.72;19.62;;;4.20;99.90;;;;;;7373270;32;20647;-59
2022/12/01 20:51:00;;;;;;;40.63;19.67;;;4.20;99.90;;;;;;7367075;32;20125;-59
2022/12/01 20:55:01;;;;;;;37.95;19.00;;;4.20;99.90;;;;;;7363644;32;20126;-59
2022/12/01 20:59:03;;;;;;;38.33;18.17;;;4.20;99.90;;;;;;7372445;32;20405;-59
2022/12/01 21:03:05;;;;;;;35.00;17.27;;;4.20;99.90;;;;;;7368083;32;20103;-60
2022/12/01 21:07:07;;;;;;;34.25;17.25;;;4.10;99.90;;;;;;7368696;32;20202;-59
2022/12/01 21:15:52;;;;;;;33.90;17.35;;;4.10;99.90;;;;;;7370833;32;20677;-59
2022/12/01 21:20:20;;;;;;;35.65;18.12;;;4.10;99.90;;;;;;7374656;32;20474;-59
2022/12/01 21:24:25;;;;;;;40.38;18.25;;;4.00;99.90;;;;;;7377676;32;20226;-60
2022/12/01 21:28:35;;;;;;;33.15;17.40;;;4.20;99.90;;;;;;7372574;32;20099;-60